createdAt,value
2022-10-23T00:01:27.724Z,99599.50
2022-10-23T00:04:04.748Z,99599.13
2022-10-23T00:06:38.219Z,99597.81
2022-10-23T00:09:13.901Z,99593.88
2022-10-23T00:11:48.102Z,99594.66
2022-10-23T00:14:24.282Z,99596.38
2022-10-23T00:16:58.558Z,99590.25
2022-10-23T00:19:31.432Z,99588.34
2022-10-23T00:22:04.364Z,99592.97
2022-10-23T00:24:37.167Z,99582.56
2022-10-23T00:27:10.373Z,99581.84
2022-10-23T00:29:45.046Z,99582.16
2022-10-23T00:32:19.420Z,99575.94
2022-10-23T00:34:52.301Z,99588.00
2022-10-23T00:37:25.150Z,99574.75
2022-10-23T00:39:57.988Z,99571.56
2022-10-23T00:42:30.827Z,99569.28
2022-10-23T00:45:21.591Z,99558.31
2022-10-23T00:47:56.661Z,99559.47
2022-10-23T00:50:31.145Z,99561.75
2022-10-23T00:53:05.440Z,99555.44
2022-10-23T00:55:39.404Z,99554.00
2022-10-23T00:58:12.426Z,99548.28
2022-10-23T01:00:48.855Z,99545.31
2022-10-23T01:03:26.583Z,99547.34
2022-10-23T01:06:10.773Z,99544.69
2022-10-23T01:08:51.719Z,99542.69
2022-10-23T01:11:30.083Z,99536.75
2022-10-23T01:14:07.539Z,99531.50
2022-10-23T01:16:46.897Z,99526.13
2022-10-23T01:19:32.407Z,99522.16
2022-10-23T01:22:20.752Z,99535.38
2022-10-23T01:24:58.692Z,99525.59
2022-10-23T01:27:37.617Z,99520.72
2022-10-23T01:30:12.920Z,99513.81
2022-10-23T01:32:50.266Z,99518.22
2022-10-23T01:35:26.892Z,99511.06
2022-10-23T01:38:07.219Z,99518.22
2022-10-23T01:40:48.708Z,99501.28
2022-10-23T01:43:29.658Z,99500.25
2022-10-23T01:46:07.123Z,99494.84
2022-10-23T01:48:39.899Z,99497.97
2022-10-23T01:51:15.456Z,99492.47
2022-10-23T01:53:50.578Z,99492.84
2022-10-23T01:56:28.121Z,99489.38
2022-10-23T01:59:04.776Z,99474.13
2022-10-23T02:01:41.900Z,99476.38
2022-10-23T02:04:19.949Z,99466.13
2022-10-23T02:06:52.837Z,99457.06
2022-10-23T02:09:25.847Z,99459.25
2022-10-23T02:12:09.629Z,99457.69
2022-10-23T02:14:53.354Z,99462.47
2022-10-23T02:17:37.036Z,99455.78
2022-10-23T02:20:20.979Z,99450.78
2022-10-23T02:23:03.921Z,99447.94
2022-10-23T02:25:44.972Z,99439.00
2022-10-23T02:28:21.014Z,99441.63
2022-10-23T02:30:57.914Z,99440.78
2022-10-23T02:33:31.964Z,99435.41
2022-10-23T02:36:05.366Z,99428.84
2022-10-23T02:38:41.305Z,99437.44
2022-10-23T02:41:21.513Z,99417.78
2022-10-23T02:44:11.620Z,99415.75
2022-10-23T02:46:54.373Z,99405.88
2022-10-23T02:49:36.102Z,99407.31
2022-10-23T02:52:17.197Z,99394.91
2022-10-23T02:55:04.114Z,99390.00
2022-10-23T02:57:43.436Z,99388.09
2022-10-23T03:00:18.999Z,99384.66
2022-10-23T03:02:58.289Z,99382.63
2022-10-23T03:05:35.412Z,99380.97
2022-10-23T03:08:10.679Z,99373.00
2022-10-23T03:10:44.589Z,99373.25
2022-10-23T03:13:17.449Z,99365.50
2022-10-23T03:15:50.254Z,99373.97
2022-10-23T03:18:24.467Z,99374.66
2022-10-23T03:20:57.955Z,99371.94
2022-10-23T03:23:30.817Z,99371.34
2022-10-23T03:26:03.686Z,99359.31
2022-10-23T03:28:36.537Z,99349.06
2022-10-23T03:31:09.372Z,99349.66
2022-10-23T03:33:43.596Z,99331.94
2022-10-23T03:36:16.371Z,99325.16
2022-10-23T03:38:49.175Z,99316.91
2022-10-23T03:41:22.025Z,99313.72
2022-10-23T03:43:54.853Z,99310.13
2022-10-23T03:46:27.735Z,99313.47
2022-10-23T03:49:01.918Z,99306.34
2022-10-23T03:51:34.783Z,99300.38
2022-10-23T03:54:07.635Z,99292.84
2022-10-23T03:56:40.589Z,99297.25
2022-10-23T03:59:13.401Z,99289.50
2022-10-23T04:01:46.853Z,99274.41
2022-10-23T04:04:21.533Z,99276.56
2022-10-23T04:06:54.447Z,99281.31
2022-10-23T04:09:27.377Z,99279.63
2022-10-23T04:12:00.318Z,99276.22
2022-10-23T04:14:33.178Z,99270.69
2022-10-23T04:17:06.196Z,99266.88
2022-10-23T04:19:40.402Z,99256.84
2022-10-23T04:22:13.212Z,99245.66
2022-10-23T04:24:48.034Z,99241.41
2022-10-23T04:27:21.041Z,99234.09
2022-10-23T04:29:55.599Z,99229.84
2022-10-23T04:32:31.409Z,99215.31
2022-10-23T04:35:06.531Z,99210.50
2022-10-23T04:37:39.407Z,99203.97
2022-10-23T04:40:12.717Z,99196.50
2022-10-23T04:42:45.577Z,99197.47
2022-10-23T04:45:18.582Z,99188.88
2022-10-23T04:47:53.369Z,99183.72
2022-10-23T04:50:27.619Z,99167.75
2022-10-23T04:53:00.442Z,99158.47
2022-10-23T04:55:33.256Z,99158.38
2022-10-23T04:58:06.107Z,99151.25
2022-10-23T05:00:38.910Z,99143.44
2022-10-23T05:03:11.771Z,99145.72
2022-10-23T05:05:46.045Z,99148.94
2022-10-23T05:08:18.871Z,99148.31
2022-10-23T05:10:52.538Z,99137.34
2022-10-23T05:13:25.415Z,99142.81
2022-10-23T05:15:59.663Z,99138.41
2022-10-23T05:18:36.527Z,99129.72
2022-10-23T05:21:20.650Z,99147.81
2022-10-23T05:23:54.755Z,99151.06
2022-10-23T05:26:27.641Z,99149.41
2022-10-23T05:29:00.628Z,99151.06
2022-10-23T05:31:35.085Z,99143.63
2022-10-23T05:34:11.183Z,99129.81
2022-10-23T05:36:48.358Z,99127.03
2022-10-23T05:39:21.808Z,99135.94
2022-10-23T05:41:55.033Z,99138.09
2022-10-23T05:44:27.867Z,99135.16
2022-10-23T05:47:00.689Z,99142.41
2022-10-23T05:49:33.513Z,99144.75
2022-10-23T05:52:07.702Z,99134.50
2022-10-23T05:54:40.547Z,99138.16
2022-10-23T05:57:13.496Z,99127.59
2022-10-23T05:59:46.427Z,99121.13
2022-10-23T06:02:19.329Z,99119.88
2022-10-23T06:04:52.330Z,99116.09
2022-10-23T06:07:30.123Z,99118.72
2022-10-23T06:10:05.898Z,99119.16
2022-10-23T06:12:38.734Z,99114.47
2022-10-23T06:15:12.235Z,99131.41
2022-10-23T06:17:45.417Z,99127.47
2022-10-23T06:20:18.481Z,99141.84
2022-10-23T06:22:52.938Z,99140.66
2022-10-23T06:25:25.800Z,99144.81
2022-10-23T06:27:58.693Z,99161.59
2022-10-23T06:30:31.705Z,99155.63
2022-10-23T06:33:06.515Z,99156.06
2022-10-23T06:35:39.474Z,99143.56
2022-10-23T06:38:13.983Z,99135.94
2022-10-23T06:40:53.250Z,99133.34
2022-10-23T06:43:26.175Z,99138.31
2022-10-23T06:46:01.902Z,99141.00
2022-10-23T06:48:34.677Z,99145.72
2022-10-23T06:51:09.596Z,99139.34
2022-10-23T06:53:44.114Z,99137.97
2022-10-23T06:56:17.022Z,99135.47
2022-10-23T06:58:49.816Z,99129.69
2022-10-23T07:01:22.740Z,99121.47
2022-10-23T07:03:55.680Z,99120.47
2022-10-23T07:06:28.537Z,99115.09
2022-10-23T07:09:02.694Z,99113.44
2022-10-23T07:11:35.569Z,99119.00
2022-10-23T07:14:08.362Z,99111.28
2022-10-23T07:16:41.241Z,99097.03
2022-10-23T07:19:14.029Z,99099.97
2022-10-23T07:21:48.307Z,99084.91
2022-10-23T07:24:22.504Z,99076.19
2022-10-23T07:26:55.332Z,99067.88
2022-10-23T07:29:28.210Z,99067.00
2022-10-23T07:32:01.954Z,99055.94
2022-10-23T07:34:36.840Z,99045.69
2022-10-23T07:37:09.757Z,99046.28
2022-10-23T07:39:44.272Z,99051.28
2022-10-23T07:42:17.092Z,99054.44
2022-10-23T07:44:49.892Z,99059.91
2022-10-23T07:47:22.747Z,99064.88
2022-10-23T07:49:55.544Z,99054.84
2022-10-23T07:52:32.039Z,99059.09
2022-10-23T07:55:10.589Z,99064.06
2022-10-23T07:57:43.392Z,99057.28
2022-10-23T08:00:16.496Z,99060.22
2022-10-23T08:02:49.371Z,99056.69
2022-10-23T08:05:22.276Z,99055.09
2022-10-23T08:07:55.113Z,99037.28
2022-10-23T08:10:29.285Z,99032.28
2022-10-23T08:13:02.520Z,99037.75
2022-10-23T08:15:35.341Z,99033.09
2022-10-23T08:18:08.472Z,99042.97
2022-10-23T08:20:42.147Z,99033.44
2022-10-23T08:23:18.503Z,99024.28
2022-10-23T08:25:58.774Z,99026.13
2022-10-23T08:28:31.582Z,99023.50
2022-10-23T08:31:09.597Z,99017.16
2022-10-23T08:33:43.045Z,99002.38
2022-10-23T08:36:18.539Z,98997.19
2022-10-23T08:38:53.668Z,98997.19
2022-10-23T08:41:32.130Z,98997.22
2022-10-23T08:44:11.177Z,99008.22
2022-10-23T08:46:47.999Z,99013.97
2022-10-23T08:49:34.794Z,99007.78
2022-10-23T08:52:16.790Z,98998.06
2022-10-23T08:55:06.027Z,99002.44
2022-10-23T08:57:48.228Z,98997.28
2022-10-23T16:01:41.042Z,98431.22
2022-10-23T16:04:13.997Z,98430.13
2022-10-23T16:06:47.009Z,98421.34
2022-10-23T16:09:19.799Z,98427.94
2022-10-23T16:11:52.817Z,98430.94
2022-10-23T16:14:25.596Z,98420.78
2022-10-23T16:16:59.792Z,98426.00
2022-10-23T16:19:32.560Z,98420.50
2022-10-23T16:22:05.464Z,98422.44
2022-10-23T16:24:38.315Z,98418.03
2022-10-23T16:27:11.139Z,98431.25
2022-10-23T16:29:43.914Z,98418.34
2022-10-23T16:32:18.331Z,98423.81
2022-10-23T16:34:51.118Z,98421.06
2022-10-23T16:37:23.927Z,98418.03
2022-10-23T16:39:56.734Z,98422.97
2022-10-23T16:42:30.788Z,98410.06
2022-10-23T16:45:03.677Z,98415.53
2022-10-23T16:47:37.911Z,98414.94
2022-10-23T16:50:10.848Z,98422.56
2022-10-23T16:52:43.968Z,98416.47
2022-10-23T16:55:16.984Z,98423.03
2022-10-23T16:57:49.822Z,98420.25
2022-10-23T17:00:23.173Z,98418.53
2022-10-23T17:02:57.356Z,98418.22
2022-10-23T17:05:33.669Z,98424.19
2022-10-23T17:08:06.499Z,98416.44
2022-10-23T17:10:39.303Z,98418.81
2022-10-23T17:13:12.217Z,98407.53
2022-10-23T17:15:45.032Z,98411.84
2022-10-23T17:18:19.221Z,98409.00
2022-10-23T17:20:57.785Z,98402.38
2022-10-23T17:23:31.166Z,98405.06
2022-10-23T17:26:04.989Z,98398.72
2022-10-23T17:28:40.462Z,98386.84
2022-10-23T17:31:15.044Z,98385.66
2022-10-23T17:33:51.710Z,98380.66
2022-10-23T17:36:24.587Z,98390.72
2022-10-23T17:38:57.781Z,98389.31
2022-10-23T17:41:30.617Z,98387.13
2022-10-23T17:44:03.994Z,98376.66
2022-10-23T17:46:36.739Z,98377.75
2022-10-23T17:49:12.650Z,98373.63
2022-10-23T17:51:45.452Z,98369.22
2022-10-23T17:54:18.346Z,98367.84
2022-10-23T17:56:51.249Z,98363.44
2022-10-23T17:59:24.476Z,98359.00
2022-10-23T18:01:59.579Z,98361.72
2022-10-23T18:04:34.036Z,98367.69
2022-10-23T18:07:06.832Z,98362.41
2022-10-23T18:09:40.074Z,98363.69
2022-10-23T18:12:12.837Z,98356.78
2022-10-23T18:14:45.687Z,98352.09
2022-10-23T18:17:18.629Z,98350.38
2022-10-23T18:19:53.257Z,98340.75
2022-10-23T18:22:26.090Z,98326.56
2022-10-23T18:24:58.953Z,98333.63
2022-10-23T18:27:31.777Z,98329.09
2022-10-23T18:30:05.893Z,98327.69
2022-10-23T18:32:38.725Z,98326.31
2022-10-23T18:35:12.952Z,98323.00
2022-10-23T18:37:45.756Z,98321.63
2022-10-23T18:40:18.845Z,98324.19
2022-10-23T18:42:51.639Z,98325.97
2022-10-23T18:45:24.592Z,98322.91
2022-10-23T18:47:57.418Z,98318.53
2022-10-23T18:50:36.224Z,98328.88
2022-10-23T18:53:09.215Z,98312.91
2022-10-23T18:55:47.084Z,98320.59
2022-10-23T18:58:20.143Z,98310.25
2022-10-23T19:00:53.000Z,98322.91
2022-10-23T19:03:25.890Z,98316.13
2022-10-23T19:06:00.620Z,98312.81
2022-10-23T19:08:33.690Z,98313.63
2022-10-23T19:11:07.465Z,98318.28
2022-10-23T19:13:43.485Z,98323.41
2022-10-23T19:16:19.414Z,98319.09
2022-10-23T19:18:56.471Z,98313.13
2022-10-23T19:21:37.481Z,98302.53
2022-10-23T19:24:14.430Z,98305.50
2022-10-23T19:26:48.109Z,98298.00
2022-10-23T19:29:24.468Z,98294.94
2022-10-23T19:31:57.661Z,98294.13
2022-10-23T19:34:30.827Z,98298.75
2022-10-23T19:37:05.219Z,98288.88
2022-10-23T19:39:38.504Z,98292.16
2022-10-23T19:42:11.346Z,98290.25
2022-10-23T19:44:44.126Z,98285.88
2022-10-23T19:47:16.966Z,98288.88
2022-10-23T19:49:51.779Z,98282.81
2022-10-23T19:52:26.015Z,98280.09
2022-10-23T19:54:58.913Z,98266.69
2022-10-23T19:57:33.828Z,98266.94
2022-10-23T20:00:08.228Z,98269.09
2022-10-23T20:02:41.426Z,98270.75
2022-10-23T20:05:15.540Z,98275.13
2022-10-23T20:07:50.975Z,98275.13
2022-10-23T20:10:24.108Z,98269.09
2022-10-23T20:13:14.788Z,98273.72
2022-10-23T20:15:49.865Z,98275.97
2022-10-23T20:18:22.685Z,98274.63
2022-10-23T20:20:55.516Z,98274.31
2022-10-23T20:23:29.814Z,98277.28
2022-10-23T20:26:06.703Z,98273.72
2022-10-23T20:28:39.977Z,98269.69
2022-10-23T20:31:12.877Z,98262.81
2022-10-23T20:33:45.754Z,98273.47
2022-10-23T20:36:27.780Z,98267.53
2022-10-23T20:39:04.952Z,98266.94
2022-10-23T20:41:38.013Z,98258.75
2022-10-23T20:44:13.613Z,98262.25
2022-10-23T20:46:46.732Z,98263.56
2022-10-23T20:49:21.303Z,98260.91
2022-10-23T20:51:56.423Z,98262.63
2022-10-23T20:54:31.846Z,98261.56
2022-10-23T20:57:04.923Z,98259.41
2022-10-23T20:59:37.745Z,98251.75
2022-10-23T21:02:11.017Z,98264.34
2022-10-23T21:04:44.084Z,98264.34
2022-10-23T21:07:17.958Z,98252.31
2022-10-23T21:09:52.212Z,98253.16
2022-10-23T21:12:25.042Z,98244.47
2022-10-23T21:14:57.980Z,98239.06
2022-10-23T21:17:35.588Z,98243.97
2022-10-23T21:20:09.518Z,98231.13
2022-10-23T21:22:42.499Z,98227.88
2022-10-23T21:25:16.915Z,98228.22
2022-10-23T21:27:49.728Z,98229.53
2022-10-23T21:30:22.529Z,98224.66
2022-10-23T21:32:55.371Z,98224.41
2022-10-23T21:35:30.041Z,98229.59
2022-10-23T21:38:03.195Z,98224.72
2022-10-23T21:40:37.415Z,98221.72
2022-10-23T21:43:11.261Z,98223.94
2022-10-23T21:45:44.262Z,98219.00
2022-10-23T21:48:17.073Z,98217.53
2022-10-23T21:50:52.829Z,98215.81
2022-10-23T21:53:25.754Z,98218.53
2022-10-23T21:56:04.595Z,98219.44
2022-10-23T21:58:37.489Z,98214.56
2022-10-23T22:01:10.620Z,98210.38
2022-10-23T22:03:44.179Z,98208.06
2022-10-23T22:06:18.638Z,98201.00
2022-10-23T22:08:52.958Z,98204.06
2022-10-23T22:11:28.483Z,98206.03
2022-10-23T22:14:01.584Z,98199.50
2022-10-23T22:16:34.502Z,98201.41
2022-10-23T22:19:07.427Z,98201.41
2022-10-23T22:21:40.464Z,98200.56
2022-10-23T22:24:13.366Z,98190.22
2022-10-23T22:26:49.611Z,98189.16
2022-10-23T22:29:25.320Z,98192.44
2022-10-23T22:31:58.737Z,98186.16
2022-10-23T22:34:51.955Z,98190.22
2022-10-23T22:37:24.946Z,98199.25
2022-10-23T22:39:57.754Z,98196.81
2022-10-23T22:42:31.943Z,98204.44
2022-10-23T22:45:05.196Z,98209.34
2022-10-23T22:47:37.988Z,98208.69
2022-10-23T22:50:11.160Z,98207.56
2022-10-23T22:52:44.299Z,98216.81
2022-10-23T22:55:17.544Z,98218.44
2022-10-23T22:57:51.761Z,98217.91
2022-10-23T23:00:24.583Z,98217.41
2022-10-23T23:02:59.848Z,98221.78
2022-10-23T23:05:32.821Z,98218.88
2022-10-23T23:08:06.010Z,98221.84
2022-10-23T23:10:39.565Z,98216.72
2022-10-23T23:13:13.893Z,98224.00
2022-10-23T23:15:46.711Z,98217.88
2022-10-23T23:18:19.602Z,98232.78
2022-10-23T23:20:52.477Z,98224.44
2022-10-23T23:23:25.296Z,98225.59
2022-10-23T23:25:58.457Z,98230.31
2022-10-23T23:28:32.775Z,98226.34
2022-10-23T23:31:07.921Z,98227.13
2022-10-23T23:33:40.791Z,98223.06
